sensor_id;sensor_type;location;lat;lon;timestamp;P1;durP1;ratioP1;P2;durP2;ratioP2
58647;SDS011;45992;45.920;20.074;2022-08-21T00:00:20;52.58;;;47.15;;
58647;SDS011;45992;45.920;20.074;2022-08-21T00:02:49;57.80;;;45.05;;
58647;SDS011;45992;45.920;20.074;2022-08-21T00:05:15;52.97;;;47.22;;
58647;SDS011;45992;45.920;20.074;2022-08-21T00:07:42;52.17;;;46.45;;
58647;SDS011;45992;45.920;20.074;2022-08-21T00:10:09;52.10;;;46.50;;
58647;SDS011;45992;45.920;20.074;2022-08-21T00:15:01;53.50;;;46.95;;
58647;SDS011;45992;45.920;20.074;2022-08-21T00:17:27;52.67;;;47.22;;
58647;SDS011;45992;45.920;20.074;2022-08-21T00:19:53;56.47;;;47.58;;
58647;SDS011;45992;45.920;20.074;2022-08-21T00:22:19;54.35;;;48.42;;
58647;SDS011;45992;45.920;20.074;2022-08-21T00:24:45;57.08;;;48.22;;
58647;SDS011;45992;45.920;20.074;2022-08-21T00:27:11;54.75;;;46.78;;
58647;SDS011;45992;45.920;20.074;2022-08-21T00:29:37;52.08;;;46.58;;
58647;SDS011;45992;45.920;20.074;2022-08-21T00:32:03;52.67;;;47.08;;
58647;SDS011;45992;45.920;20.074;2022-08-21T00:34:29;52.00;;;46.55;;
58647;SDS011;45992;45.920;20.074;2022-08-21T00:36:55;53.15;;;47.38;;
58647;SDS011;45992;45.920;20.074;2022-08-21T00:39:21;53.80;;;45.33;;
58647;SDS011;45992;45.920;20.074;2022-08-21T00:41:47;54.35;;;44.58;;
58647;SDS011;45992;45.920;20.074;2022-08-21T00:44:14;53.35;;;44.42;;
58647;SDS011;45992;45.920;20.074;2022-08-21T00:46:40;49.42;;;41.97;;
58647;SDS011;45992;45.920;20.074;2022-08-21T00:49:07;55.05;;;45.67;;
58647;SDS011;45992;45.920;20.074;2022-08-21T00:51:42;50.75;;;43.85;;
58647;SDS011;45992;45.920;20.074;2022-08-21T00:54:08;48.85;;;43.45;;
58647;SDS011;45992;45.920;20.074;2022-08-21T00:56:35;55.30;;;44.47;;
58647;SDS011;45992;45.920;20.074;2022-08-21T00:59:02;53.05;;;44.75;;
58647;SDS011;45992;45.920;20.074;2022-08-21T01:01:28;52.10;;;43.85;;
58647;SDS011;45992;45.920;20.074;2022-08-21T01:03:54;50.60;;;44.55;;
58647;SDS011;45992;45.920;20.074;2022-08-21T01:06:20;51.20;;;44.38;;
58647;SDS011;45992;45.920;20.074;2022-08-21T01:08:46;51.22;;;45.08;;
58647;SDS011;45992;45.920;20.074;2022-08-21T01:11:13;47.20;;;42.10;;
58647;SDS011;45992;45.920;20.074;2022-08-21T01:13:40;46.78;;;41.75;;
58647;SDS011;45992;45.920;20.074;2022-08-21T01:16:10;52.20;;;42.70;;
58647;SDS011;45992;45.920;20.074;2022-08-21T01:18:36;51.65;;;44.63;;
58647;SDS011;45992;45.920;20.074;2022-08-21T01:23:29;53.10;;;45.03;;
58647;SDS011;45992;45.920;20.074;2022-08-21T01:25:55;50.35;;;43.92;;
58647;SDS011;45992;45.920;20.074;2022-08-21T01:28:21;55.25;;;45.47;;
58647;SDS011;45992;45.920;20.074;2022-08-21T01:30:47;58.60;;;46.83;;
58647;SDS011;45992;45.920;20.074;2022-08-21T01:33:14;49.92;;;43.45;;
58647;SDS011;45992;45.920;20.074;2022-08-21T01:35:40;50.67;;;44.90;;
58647;SDS011;45992;45.920;20.074;2022-08-21T01:38:06;54.28;;;44.95;;
58647;SDS011;45992;45.920;20.074;2022-08-21T01:40:32;55.45;;;46.70;;
58647;SDS011;45992;45.920;20.074;2022-08-21T01:42:58;55.72;;;47.33;;
58647;SDS011;45992;45.920;20.074;2022-08-21T01:45:24;54.53;;;46.75;;
58647;SDS011;45992;45.920;20.074;2022-08-21T01:47:51;53.55;;;46.28;;
58647;SDS011;45992;45.920;20.074;2022-08-21T01:50:17;58.60;;;47.60;;
58647;SDS011;45992;45.920;20.074;2022-08-21T01:52:44;53.58;;;47.33;;
58647;SDS011;45992;45.920;20.074;2022-08-21T01:55:10;54.50;;;48.05;;
58647;SDS011;45992;45.920;20.074;2022-08-21T01:57:37;52.38;;;45.47;;
58647;SDS011;45992;45.920;20.074;2022-08-21T02:00:04;54.30;;;46.25;;
58647;SDS011;45992;45.920;20.074;2022-08-21T02:02:30;60.17;;;48.85;;
58647;SDS011;45992;45.920;20.074;2022-08-21T02:04:56;56.85;;;46.60;;
58647;SDS011;45992;45.920;20.074;2022-08-21T02:07:22;57.58;;;49.45;;
58647;SDS011;45992;45.920;20.074;2022-08-21T02:09:48;55.17;;;47.65;;
58647;SDS011;45992;45.920;20.074;2022-08-21T02:12:14;53.65;;;47.33;;
58647;SDS011;45992;45.920;20.074;2022-08-21T02:14:40;54.83;;;48.15;;
58647;SDS011;45992;45.920;20.074;2022-08-21T02:17:06;60.13;;;49.10;;
58647;SDS011;45992;45.920;20.074;2022-08-21T02:19:32;57.20;;;47.55;;
58647;SDS011;45992;45.920;20.074;2022-08-21T02:21:58;56.47;;;48.85;;
58647;SDS011;45992;45.920;20.074;2022-08-21T02:24:28;56.17;;;50.08;;
58647;SDS011;45992;45.920;20.074;2022-08-21T02:26:54;55.80;;;49.72;;
58647;SDS011;45992;45.920;20.074;2022-08-21T02:29:20;57.22;;;48.97;;
58647;SDS011;45992;45.920;20.074;2022-08-21T02:31:46;59.00;;;52.60;;
58647;SDS011;45992;45.920;20.074;2022-08-21T02:34:12;52.13;;;46.33;;
58647;SDS011;45992;45.920;20.074;2022-08-21T02:36:38;58.58;;;50.17;;
58647;SDS011;45992;45.920;20.074;2022-08-21T02:39:04;56.42;;;50.45;;
58647;SDS011;45992;45.920;20.074;2022-08-21T02:41:30;55.13;;;49.13;;
58647;SDS011;45992;45.920;20.074;2022-08-21T02:43:57;56.20;;;49.47;;
58647;SDS011;45992;45.920;20.074;2022-08-21T02:46:23;58.92;;;49.47;;
58647;SDS011;45992;45.920;20.074;2022-08-21T02:48:49;56.00;;;48.45;;
58647;SDS011;45992;45.920;20.074;2022-08-21T02:51:16;54.03;;;48.22;;
58647;SDS011;45992;45.920;20.074;2022-08-21T02:53:43;55.13;;;49.17;;
58647;SDS011;45992;45.920;20.074;2022-08-21T02:56:10;56.33;;;50.13;;
58647;SDS011;45992;45.920;20.074;2022-08-21T02:58:41;57.30;;;50.47;;
58647;SDS011;45992;45.920;20.074;2022-08-21T03:01:08;60.58;;;51.50;;
58647;SDS011;45992;45.920;20.074;2022-08-21T03:03:35;54.80;;;48.88;;
58647;SDS011;45992;45.920;20.074;2022-08-21T03:06:02;58.42;;;50.08;;
58647;SDS011;45992;45.920;20.074;2022-08-21T03:08:28;62.33;;;51.75;;
58647;SDS011;45992;45.920;20.074;2022-08-21T03:10:55;54.67;;;48.72;;
58647;SDS011;45992;45.920;20.074;2022-08-21T03:13:21;57.92;;;49.17;;
58647;SDS011;45992;45.920;20.074;2022-08-21T03:15:49;58.00;;;46.85;;
58647;SDS011;45992;45.920;20.074;2022-08-21T03:18:15;52.90;;;42.28;;
58647;SDS011;45992;45.920;20.074;2022-08-21T03:20:41;49.40;;;39.53;;
58647;SDS011;45992;45.920;20.074;2022-08-21T03:23:10;46.75;;;37.63;;
58647;SDS011;45992;45.920;20.074;2022-08-21T03:25:37;40.58;;;31.75;;
58647;SDS011;45992;45.920;20.074;2022-08-21T03:30:29;36.85;;;28.05;;
58647;SDS011;45992;45.920;20.074;2022-08-21T03:32:58;39.75;;;27.85;;
58647;SDS011;45992;45.920;20.074;2022-08-21T03:35:25;40.10;;;28.42;;
58647;SDS011;45992;45.920;20.074;2022-08-21T03:37:51;36.00;;;26.60;;
58647;SDS011;45992;45.920;20.074;2022-08-21T03:40:19;35.53;;;26.02;;
58647;SDS011;45992;45.920;20.074;2022-08-21T03:42:45;39.03;;;26.30;;
58647;SDS011;45992;45.920;20.074;2022-08-21T03:45:12;33.15;;;26.67;;
58647;SDS011;45992;45.920;20.074;2022-08-21T03:47:38;32.83;;;25.20;;
58647;SDS011;45992;45.920;20.074;2022-08-21T03:50:05;30.40;;;22.45;;
58647;SDS011;45992;45.920;20.074;2022-08-21T03:52:32;32.55;;;24.83;;
58647;SDS011;45992;45.920;20.074;2022-08-21T03:54:59;34.63;;;24.50;;
58647;SDS011;45992;45.920;20.074;2022-08-21T03:57:25;32.13;;;23.67;;
58647;SDS011;45992;45.920;20.074;2022-08-21T03:59:51;36.10;;;23.48;;
58647;SDS011;45992;45.920;20.074;2022-08-21T04:02:17;31.13;;;23.80;;
58647;SDS011;45992;45.920;20.074;2022-08-21T04:04:44;29.52;;;23.45;;
58647;SDS011;45992;45.920;20.074;2022-08-21T04:07:10;28.92;;;22.40;;
58647;SDS011;45992;45.920;20.074;2022-08-21T04:09:36;32.85;;;23.30;;
58647;SDS011;45992;45.920;20.074;2022-08-21T04:12:02;31.38;;;25.73;;
58647;SDS011;45992;45.920;20.074;2022-08-21T04:14:28;33.78;;;24.52;;
58647;SDS011;45992;45.920;20.074;2022-08-21T04:16:55;30.65;;;23.02;;
58647;SDS011;45992;45.920;20.074;2022-08-21T04:19:21;30.60;;;23.17;;
58647;SDS011;45992;45.920;20.074;2022-08-21T04:21:48;32.45;;;25.10;;
58647;SDS011;45992;45.920;20.074;2022-08-21T04:24:14;33.08;;;24.88;;
58647;SDS011;45992;45.920;20.074;2022-08-21T04:26:40;34.05;;;24.23;;
58647;SDS011;45992;45.920;20.074;2022-08-21T04:29:06;29.13;;;24.98;;
58647;SDS011;45992;45.920;20.074;2022-08-21T04:31:33;32.45;;;25.35;;
58647;SDS011;45992;45.920;20.074;2022-08-21T04:34:00;31.42;;;24.33;;
58647;SDS011;45992;45.920;20.074;2022-08-21T04:36:26;31.13;;;25.15;;
58647;SDS011;45992;45.920;20.074;2022-08-21T04:38:52;30.77;;;22.33;;
58647;SDS011;45992;45.920;20.074;2022-08-21T04:41:18;28.85;;;23.75;;
58647;SDS011;45992;45.920;20.074;2022-08-21T04:43:44;30.17;;;23.35;;
58647;SDS011;45992;45.920;20.074;2022-08-21T04:46:10;30.63;;;25.08;;
58647;SDS011;45992;45.920;20.074;2022-08-21T04:48:36;28.63;;;22.95;;
58647;SDS011;45992;45.920;20.074;2022-08-21T04:53:54;23.92;;;20.80;;
58647;SDS011;45992;45.920;20.074;2022-08-21T04:56:24;24.30;;;19.52;;
58647;SDS011;45992;45.920;20.074;2022-08-21T04:58:52;24.73;;;18.80;;
58647;SDS011;45992;45.920;20.074;2022-08-21T05:01:20;24.23;;;18.77;;
58647;SDS011;45992;45.920;20.074;2022-08-21T05:03:47;24.02;;;18.85;;
58647;SDS011;45992;45.920;20.074;2022-08-21T05:06:14;20.63;;;16.33;;
58647;SDS011;45992;45.920;20.074;2022-08-21T05:08:41;18.92;;;14.73;;
58647;SDS011;45992;45.920;20.074;2022-08-21T05:11:08;19.42;;;15.27;;
58647;SDS011;45992;45.920;20.074;2022-08-21T05:16:00;17.50;;;12.82;;
58647;SDS011;45992;45.920;20.074;2022-08-21T05:18:27;17.17;;;12.75;;
58647;SDS011;45992;45.920;20.074;2022-08-21T05:20:54;14.70;;;12.60;;
58647;SDS011;45992;45.920;20.074;2022-08-21T05:23:20;15.45;;;12.15;;
58647;SDS011;45992;45.920;20.074;2022-08-21T05:25:46;15.10;;;12.00;;
58647;SDS011;45992;45.920;20.074;2022-08-21T05:28:12;15.75;;;12.60;;
58647;SDS011;45992;45.920;20.074;2022-08-21T05:30:38;14.73;;;11.88;;
58647;SDS011;45992;45.920;20.074;2022-08-21T05:33:06;13.85;;;11.88;;
58647;SDS011;45992;45.920;20.074;2022-08-21T05:35:32;15.65;;;11.20;;
58647;SDS011;45992;45.920;20.074;2022-08-21T05:40:25;14.32;;;11.57;;
58647;SDS011;45992;45.920;20.074;2022-08-21T05:45:17;13.73;;;10.90;;
58647;SDS011;45992;45.920;20.074;2022-08-21T05:47:43;15.02;;;12.20;;
58647;SDS011;45992;45.920;20.074;2022-08-21T05:50:09;12.70;;;11.38;;
58647;SDS011;45992;45.920;20.074;2022-08-21T05:52:35;15.77;;;10.90;;
58647;SDS011;45992;45.920;20.074;2022-08-21T05:55:01;14.02;;;12.35;;
58647;SDS011;45992;45.920;20.074;2022-08-21T05:57:27;13.38;;;11.40;;
58647;SDS011;45992;45.920;20.074;2022-08-21T05:59:53;13.52;;;11.10;;
58647;SDS011;45992;45.920;20.074;2022-08-21T06:02:19;14.05;;;11.95;;
58647;SDS011;45992;45.920;20.074;2022-08-21T06:04:46;14.07;;;10.43;;
58647;SDS011;45992;45.920;20.074;2022-08-21T06:09:38;12.60;;;10.73;;
58647;SDS011;45992;45.920;20.074;2022-08-21T06:12:05;13.10;;;11.45;;
58647;SDS011;45992;45.920;20.074;2022-08-21T06:14:32;13.73;;;10.93;;
58647;SDS011;45992;45.920;20.074;2022-08-21T06:17:16;13.02;;;10.02;;
58647;SDS011;45992;45.920;20.074;2022-08-21T06:19:42;13.15;;;11.10;;
58647;SDS011;45992;45.920;20.074;2022-08-21T06:22:08;13.82;;;10.05;;
58647;SDS011;45992;45.920;20.074;2022-08-21T06:24:34;12.15;;;10.13;;
58647;SDS011;45992;45.920;20.074;2022-08-21T06:27:07;13.05;;;10.60;;
58647;SDS011;45992;45.920;20.074;2022-08-21T06:29:33;12.95;;;10.18;;
58647;SDS011;45992;45.920;20.074;2022-08-21T06:34:25;13.55;;;10.82;;
58647;SDS011;45992;45.920;20.074;2022-08-21T06:36:51;14.52;;;11.60;;
58647;SDS011;45992;45.920;20.074;2022-08-21T06:39:17;13.73;;;12.18;;
58647;SDS011;45992;45.920;20.074;2022-08-21T06:44:10;14.88;;;12.43;;
58647;SDS011;45992;45.920;20.074;2022-08-21T06:46:36;13.20;;;10.95;;
58647;SDS011;45992;45.920;20.074;2022-08-21T06:49:02;16.38;;;12.65;;
58647;SDS011;45992;45.920;20.074;2022-08-21T06:51:28;15.85;;;12.20;;
58647;SDS011;45992;45.920;20.074;2022-08-21T06:53:54;16.85;;;12.82;;
58647;SDS011;45992;45.920;20.074;2022-08-21T06:56:20;14.35;;;12.43;;
58647;SDS011;45992;45.920;20.074;2022-08-21T06:58:46;15.35;;;13.02;;
58647;SDS011;45992;45.920;20.074;2022-08-21T07:01:12;15.88;;;13.38;;
58647;SDS011;45992;45.920;20.074;2022-08-21T07:03:39;16.73;;;12.88;;
58647;SDS011;45992;45.920;20.074;2022-08-21T07:06:06;17.30;;;13.32;;
58647;SDS011;45992;45.920;20.074;2022-08-21T07:08:33;17.00;;;13.13;;
58647;SDS011;45992;45.920;20.074;2022-08-21T07:11:00;15.50;;;13.40;;
58647;SDS011;45992;45.920;20.074;2022-08-21T07:13:27;15.82;;;14.18;;
58647;SDS011;45992;45.920;20.074;2022-08-21T07:18:19;14.43;;;12.80;;
58647;SDS011;45992;45.920;20.074;2022-08-21T07:20:45;17.77;;;14.10;;
58647;SDS011;45992;45.920;20.074;2022-08-21T07:23:18;19.90;;;15.40;;
58647;SDS011;45992;45.920;20.074;2022-08-21T07:25:46;17.73;;;14.23;;
58647;SDS011;45992;45.920;20.074;2022-08-21T07:28:12;16.10;;;13.45;;
58647;SDS011;45992;45.920;20.074;2022-08-21T07:30:38;16.92;;;13.93;;
58647;SDS011;45992;45.920;20.074;2022-08-21T07:33:04;16.98;;;14.00;;
58647;SDS011;45992;45.920;20.074;2022-08-21T07:35:30;17.15;;;14.25;;
58647;SDS011;45992;45.920;20.074;2022-08-21T07:37:58;15.75;;;13.48;;
58647;SDS011;45992;45.920;20.074;2022-08-21T07:40:24;21.17;;;15.25;;
58647;SDS011;45992;45.920;20.074;2022-08-21T07:42:50;17.80;;;14.02;;
58647;SDS011;45992;45.920;20.074;2022-08-21T07:45:17;17.20;;;15.23;;
58647;SDS011;45992;45.920;20.074;2022-08-21T07:47:43;17.10;;;15.27;;
58647;SDS011;45992;45.920;20.074;2022-08-21T07:50:10;26.50;;;15.68;;
58647;SDS011;45992;45.920;20.074;2022-08-21T07:52:37;19.25;;;15.70;;
58647;SDS011;45992;45.920;20.074;2022-08-21T07:55:06;18.60;;;15.55;;
58647;SDS011;45992;45.920;20.074;2022-08-21T07:57:33;19.33;;;16.70;;
58647;SDS011;45992;45.920;20.074;2022-08-21T07:59:59;17.27;;;14.98;;
58647;SDS011;45992;45.920;20.074;2022-08-21T08:02:28;17.88;;;15.85;;
58647;SDS011;45992;45.920;20.074;2022-08-21T08:04:58;20.98;;;16.52;;
58647;SDS011;45992;45.920;20.074;2022-08-21T08:07:24;18.20;;;14.57;;
58647;SDS011;45992;45.920;20.074;2022-08-21T08:09:51;19.33;;;16.05;;
58647;SDS011;45992;45.920;20.074;2022-08-21T08:12:17;21.38;;;16.13;;
58647;SDS011;45992;45.920;20.074;2022-08-21T08:14:43;21.52;;;17.05;;
58647;SDS011;45992;45.920;20.074;2022-08-21T08:17:09;20.05;;;16.70;;
58647;SDS011;45992;45.920;20.074;2022-08-21T08:19:35;21.27;;;15.45;;
58647;SDS011;45992;45.920;20.074;2022-08-21T08:22:01;20.92;;;16.92;;
58647;SDS011;45992;45.920;20.074;2022-08-21T08:24:40;20.35;;;17.10;;
58647;SDS011;45992;45.920;20.074;2022-08-21T08:27:07;19.67;;;17.58;;
58647;SDS011;45992;45.920;20.074;2022-08-21T08:29:33;22.67;;;18.35;;
58647;SDS011;45992;45.920;20.074;2022-08-21T08:32:00;20.20;;;17.42;;
58647;SDS011;45992;45.920;20.074;2022-08-21T08:34:26;20.25;;;16.00;;
58647;SDS011;45992;45.920;20.074;2022-08-21T08:36:52;19.35;;;16.58;;
58647;SDS011;45992;45.920;20.074;2022-08-21T08:39:18;19.73;;;17.63;;
58647;SDS011;45992;45.920;20.074;2022-08-21T08:41:45;20.10;;;17.95;;
58647;SDS011;45992;45.920;20.074;2022-08-21T08:44:15;20.58;;;16.98;;
58647;SDS011;45992;45.920;20.074;2022-08-21T08:46:43;23.30;;;18.23;;
58647;SDS011;45992;45.920;20.074;2022-08-21T08:49:11;22.23;;;17.90;;
58647;SDS011;45992;45.920;20.074;2022-08-21T08:51:44;21.55;;;16.88;;
58647;SDS011;45992;45.920;20.074;2022-08-21T08:54:14;21.30;;;17.67;;
58647;SDS011;45992;45.920;20.074;2022-08-21T08:56:41;19.80;;;16.77;;
58647;SDS011;45992;45.920;20.074;2022-08-21T08:59:08;20.13;;;16.10;;
58647;SDS011;45992;45.920;20.074;2022-08-21T09:01:37;18.08;;;16.20;;
58647;SDS011;45992;45.920;20.074;2022-08-21T09:04:03;19.85;;;16.67;;
58647;SDS011;45992;45.920;20.074;2022-08-21T09:11:39;21.17;;;17.45;;
58647;SDS011;45992;45.920;20.074;2022-08-21T09:17:04;18.65;;;16.40;;
58647;SDS011;45992;45.920;20.074;2022-08-21T09:19:38;20.58;;;16.35;;
58647;SDS011;45992;45.920;20.074;2022-08-21T09:27:15;18.30;;;16.17;;
58647;SDS011;45992;45.920;20.074;2022-08-21T09:29:43;19.00;;;14.77;;
58647;SDS011;45992;45.920;20.074;2022-08-21T09:32:19;17.17;;;14.95;;
58647;SDS011;45992;45.920;20.074;2022-08-21T09:37:16;16.90;;;14.63;;
58647;SDS011;45992;45.920;20.074;2022-08-21T09:39:43;20.02;;;17.00;;
58647;SDS011;45992;45.920;20.074;2022-08-21T09:42:09;20.70;;;17.17;;
58647;SDS011;45992;45.920;20.074;2022-08-21T09:44:38;20.45;;;15.40;;
58647;SDS011;45992;45.920;20.074;2022-08-21T09:47:09;19.58;;;17.48;;
58647;SDS011;45992;45.920;20.074;2022-08-21T09:49:38;19.73;;;17.50;;
58647;SDS011;45992;45.920;20.074;2022-08-21T09:52:10;22.52;;;19.80;;
58647;SDS011;45992;45.920;20.074;2022-08-21T09:54:40;20.13;;;17.40;;
58647;SDS011;45992;45.920;20.074;2022-08-21T09:59:54;23.15;;;20.77;;
58647;SDS011;45992;45.920;20.074;2022-08-21T10:02:22;26.48;;;23.55;;
58647;SDS011;45992;45.920;20.074;2022-08-21T10:04:50;20.23;;;17.67;;
58647;SDS011;45992;45.920;20.074;2022-08-21T10:07:19;19.77;;;15.52;;
58647;SDS011;45992;45.920;20.074;2022-08-21T10:09:45;15.98;;;13.60;;
58647;SDS011;45992;45.920;20.074;2022-08-21T10:12:21;19.27;;;16.30;;
58647;SDS011;45992;45.920;20.074;2022-08-21T10:20:09;20.48;;;14.48;;
58647;SDS011;45992;45.920;20.074;2022-08-21T10:37:37;19.15;;;16.20;;
58647;SDS011;45992;45.920;20.074;2022-08-21T10:48:13;20.70;;;17.63;;
58647;SDS011;45992;45.920;20.074;2022-08-21T10:50:48;20.15;;;17.95;;
58647;SDS011;45992;45.920;20.074;2022-08-21T10:58:24;23.90;;;18.45;;
58647;SDS011;45992;45.920;20.074;2022-08-21T11:00:52;22.50;;;17.50;;
58647;SDS011;45992;45.920;20.074;2022-08-21T11:06:37;26.48;;;22.52;;
58647;SDS011;45992;45.920;20.074;2022-08-21T11:08:57;28.15;;;23.48;;
58647;SDS011;45992;45.920;20.074;2022-08-21T11:11:27;26.65;;;22.60;;
58647;SDS011;45992;45.920;20.074;2022-08-21T11:16:41;31.55;;;25.08;;
58647;SDS011;45992;45.920;20.074;2022-08-21T11:19:09;32.63;;;26.20;;
58647;SDS011;45992;45.920;20.074;2022-08-21T11:24:32;31.52;;;25.90;;
58647;SDS011;45992;45.920;20.074;2022-08-21T11:29:27;33.55;;;29.95;;
58647;SDS011;45992;45.920;20.074;2022-08-21T11:34:38;27.85;;;24.85;;
58647;SDS011;45992;45.920;20.074;2022-08-21T11:43:04;25.40;;;21.90;;
58647;SDS011;45992;45.920;20.074;2022-08-21T11:45:43;24.65;;;21.92;;
58647;SDS011;45992;45.920;20.074;2022-08-21T11:50:54;26.45;;;22.55;;
58647;SDS011;45992;45.920;20.074;2022-08-21T11:53:26;26.88;;;21.33;;
58647;SDS011;45992;45.920;20.074;2022-08-21T11:58:31;23.30;;;20.83;;
58647;SDS011;45992;45.920;20.074;2022-08-21T12:01:06;26.38;;;20.15;;
58647;SDS011;45992;45.920;20.074;2022-08-21T12:03:33;24.55;;;21.27;;
58647;SDS011;45992;45.920;20.074;2022-08-21T12:06:01;26.27;;;21.13;;
58647;SDS011;45992;45.920;20.074;2022-08-21T12:08:29;22.48;;;20.10;;
58647;SDS011;45992;45.920;20.074;2022-08-21T12:11:03;22.83;;;20.13;;
58647;SDS011;45992;45.920;20.074;2022-08-21T12:13:31;26.42;;;20.35;;
58647;SDS011;45992;45.920;20.074;2022-08-21T12:18:33;24.50;;;21.10;;
58647;SDS011;45992;45.920;20.074;2022-08-21T12:23:46;21.67;;;19.38;;
58647;SDS011;45992;45.920;20.074;2022-08-21T12:28:38;21.98;;;19.50;;
58647;SDS011;45992;45.920;20.074;2022-08-21T12:31:05;22.27;;;19.20;;
58647;SDS011;45992;45.920;20.074;2022-08-21T12:33:42;23.10;;;18.73;;
58647;SDS011;45992;45.920;20.074;2022-08-21T12:36:17;20.92;;;18.02;;
58647;SDS011;45992;45.920;20.074;2022-08-21T12:38:54;22.75;;;19.17;;
58647;SDS011;45992;45.920;20.074;2022-08-21T12:41:24;21.40;;;18.58;;
58647;SDS011;45992;45.920;20.074;2022-08-21T12:43:59;22.38;;;19.70;;
58647;SDS011;45992;45.920;20.074;2022-08-21T12:46:38;20.20;;;17.58;;
58647;SDS011;45992;45.920;20.074;2022-08-21T12:49:12;21.38;;;18.08;;
58647;SDS011;45992;45.920;20.074;2022-08-21T12:51:50;19.58;;;16.60;;
58647;SDS011;45992;45.920;20.074;2022-08-21T12:54:25;20.08;;;16.23;;
58647;SDS011;45992;45.920;20.074;2022-08-21T12:57:02;20.75;;;17.88;;
58647;SDS011;45992;45.920;20.074;2022-08-21T12:59:28;20.15;;;17.45;;
58647;SDS011;45992;45.920;20.074;2022-08-21T13:01:55;20.13;;;17.15;;
58647;SDS011;45992;45.920;20.074;2022-08-21T13:04:24;19.67;;;17.35;;
58647;SDS011;45992;45.920;20.074;2022-08-21T13:06:53;18.60;;;15.88;;
58647;SDS011;45992;45.920;20.074;2022-08-21T13:09:22;17.23;;;15.43;;
58647;SDS011;45992;45.920;20.074;2022-08-21T13:11:49;19.05;;;15.52;;
58647;SDS011;45992;45.920;20.074;2022-08-21T13:16:45;17.42;;;14.35;;
58647;SDS011;45992;45.920;20.074;2022-08-21T13:21:41;16.25;;;13.88;;
58647;SDS011;45992;45.920;20.074;2022-08-21T13:24:19;16.67;;;14.05;;
58647;SDS011;45992;45.920;20.074;2022-08-21T13:26:45;16.85;;;14.63;;
58647;SDS011;45992;45.920;20.074;2022-08-21T13:29:12;15.77;;;14.02;;
58647;SDS011;45992;45.920;20.074;2022-08-21T13:31:40;14.00;;;12.45;;
58647;SDS011;45992;45.920;20.074;2022-08-21T13:34:07;16.05;;;14.27;;
58647;SDS011;45992;45.920;20.074;2022-08-21T13:36:36;17.60;;;15.75;;
58647;SDS011;45992;45.920;20.074;2022-08-21T13:39:03;16.98;;;15.18;;
58647;SDS011;45992;45.920;20.074;2022-08-21T13:41:31;17.58;;;15.68;;
58647;SDS011;45992;45.920;20.074;2022-08-21T13:44:13;18.15;;;14.27;;
58647;SDS011;45992;45.920;20.074;2022-08-21T13:46:40;18.55;;;15.60;;
58647;SDS011;45992;45.920;20.074;2022-08-21T13:49:06;17.63;;;14.45;;
58647;SDS011;45992;45.920;20.074;2022-08-21T13:51:33;16.20;;;13.90;;
58647;SDS011;45992;45.920;20.074;2022-08-21T13:53:59;17.75;;;14.65;;
58647;SDS011;45992;45.920;20.074;2022-08-21T13:58:52;17.20;;;15.25;;
58647;SDS011;45992;45.920;20.074;2022-08-21T14:01:28;17.10;;;13.90;;
58647;SDS011;45992;45.920;20.074;2022-08-21T14:03:57;19.67;;;15.48;;
58647;SDS011;45992;45.920;20.074;2022-08-21T14:06:25;18.58;;;14.82;;
58647;SDS011;45992;45.920;20.074;2022-08-21T14:08:59;19.35;;;15.80;;
58647;SDS011;45992;45.920;20.074;2022-08-21T14:11:26;21.88;;;17.23;;
58647;SDS011;45992;45.920;20.074;2022-08-21T14:16:26;19.55;;;16.85;;
58647;SDS011;45992;45.920;20.074;2022-08-21T14:19:38;20.23;;;17.13;;
58647;SDS011;45992;45.920;20.074;2022-08-21T14:21:40;16.38;;;14.07;;
58647;SDS011;45992;45.920;20.074;2022-08-21T14:24:12;16.25;;;14.52;;
58647;SDS011;45992;45.920;20.074;2022-08-21T14:26:46;15.57;;;13.90;;
58647;SDS011;45992;45.920;20.074;2022-08-21T14:29:14;18.10;;;14.98;;
58647;SDS011;45992;45.920;20.074;2022-08-21T14:31:41;17.05;;;14.73;;
58647;SDS011;45992;45.920;20.074;2022-08-21T14:34:09;17.67;;;15.18;;
58647;SDS011;45992;45.920;20.074;2022-08-21T14:36:36;16.17;;;14.20;;
58647;SDS011;45992;45.920;20.074;2022-08-21T14:39:02;19.75;;;15.07;;
58647;SDS011;45992;45.920;20.074;2022-08-21T14:41:28;16.05;;;13.73;;
58647;SDS011;45992;45.920;20.074;2022-08-21T14:43:54;18.13;;;13.60;;
58647;SDS011;45992;45.920;20.074;2022-08-21T14:46:25;17.52;;;14.90;;
58647;SDS011;45992;45.920;20.074;2022-08-21T14:48:52;16.67;;;14.38;;
58647;SDS011;45992;45.920;20.074;2022-08-21T14:51:18;15.88;;;13.52;;
58647;SDS011;45992;45.920;20.074;2022-08-21T14:53:44;16.63;;;13.38;;
58647;SDS011;45992;45.920;20.074;2022-08-21T14:56:10;16.65;;;13.82;;
58647;SDS011;45992;45.920;20.074;2022-08-21T14:58:39;17.90;;;13.63;;
58647;SDS011;45992;45.920;20.074;2022-08-21T15:01:06;14.45;;;12.95;;
58647;SDS011;45992;45.920;20.074;2022-08-21T15:03:33;16.75;;;12.27;;
58647;SDS011;45992;45.920;20.074;2022-08-21T15:05:59;14.75;;;12.82;;
58647;SDS011;45992;45.920;20.074;2022-08-21T15:08:26;14.52;;;12.82;;
58647;SDS011;45992;45.920;20.074;2022-08-21T15:10:52;14.35;;;12.73;;
58647;SDS011;45992;45.920;20.074;2022-08-21T15:13:19;17.67;;;11.38;;
58647;SDS011;45992;45.920;20.074;2022-08-21T15:15:45;12.95;;;8.70;;
58647;SDS011;45992;45.920;20.074;2022-08-21T15:18:13;13.30;;;10.23;;
58647;SDS011;45992;45.920;20.074;2022-08-21T15:23:05;12.95;;;9.07;;
58647;SDS011;45992;45.920;20.074;2022-08-21T15:25:32;12.25;;;9.52;;
58647;SDS011;45992;45.920;20.074;2022-08-21T15:30:24;17.45;;;10.65;;
58647;SDS011;45992;45.920;20.074;2022-08-21T15:32:50;12.48;;;10.57;;
58647;SDS011;45992;45.920;20.074;2022-08-21T15:35:17;11.05;;;9.45;;
58647;SDS011;45992;45.920;20.074;2022-08-21T15:37:43;12.45;;;9.20;;
58647;SDS011;45992;45.920;20.074;2022-08-21T15:40:09;11.15;;;9.13;;
58647;SDS011;45992;45.920;20.074;2022-08-21T15:42:37;10.40;;;8.13;;
58647;SDS011;45992;45.920;20.074;2022-08-21T15:45:03;13.55;;;9.25;;
58647;SDS011;45992;45.920;20.074;2022-08-21T15:47:30;12.77;;;7.88;;
58647;SDS011;45992;45.920;20.074;2022-08-21T15:49:58;12.88;;;8.52;;
58647;SDS011;45992;45.920;20.074;2022-08-21T15:52:24;12.77;;;8.55;;
58647;SDS011;45992;45.920;20.074;2022-08-21T15:54:50;13.80;;;8.20;;
58647;SDS011;45992;45.920;20.074;2022-08-21T15:59:47;12.68;;;8.65;;
58647;SDS011;45992;45.920;20.074;2022-08-21T16:02:23;13.98;;;9.80;;
58647;SDS011;45992;45.920;20.074;2022-08-21T16:04:50;13.95;;;9.48;;
58647;SDS011;45992;45.920;20.074;2022-08-21T16:07:16;13.45;;;8.38;;
58647;SDS011;45992;45.920;20.074;2022-08-21T16:09:42;16.40;;;10.50;;
58647;SDS011;45992;45.920;20.074;2022-08-21T16:12:09;13.90;;;10.05;;
58647;SDS011;45992;45.920;20.074;2022-08-21T16:14:36;13.98;;;9.73;;
58647;SDS011;45992;45.920;20.074;2022-08-21T16:17:04;18.00;;;12.02;;
58647;SDS011;45992;45.920;20.074;2022-08-21T16:19:30;19.77;;;14.85;;